Time;durP1;ratioP1;P1;durP2;ratioP2;P2;SDS_P1;SDS_P2;PMS_P1;PMS_P2;Temp;Humidity;BMP_temperature;BMP_pressure;BME280_temperature;BME280_humidity;BME280_pressure;Samples;Min_cycle;Max_cycle;Signal;HPM_P1;HPM_P2
2024/03/15 00:00:05;;;;;;;9.70;6.20;;;;;;;11.83;100.00;100680.44;5092967;28;20081;-77
2024/03/15 00:02:34;;;;;;;10.75;6.28;;;;;;;11.84;100.00;100679.47;5092615;28;20028;-73
2024/03/15 00:05:00;;;;;;;12.85;6.15;;;;;;;11.83;100.00;100688.44;5092933;28;20028;-73
2024/03/15 00:07:25;;;;;;;12.07;6.05;;;;;;;11.88;100.00;100680.81;5092807;28;20080;-73
2024/03/15 00:09:51;;;;;;;11.32;6.32;;;;;;;11.94;100.00;100685.59;5074694;28;20024;-73
2024/03/15 00:12:16;;;;;;;14.18;6.50;;;;;;;12.01;100.00;100682.31;5092544;28;20048;-73
2024/03/15 00:14:42;;;;;;;8.55;5.65;;;;;;;12.03;100.00;100686.47;5092833;28;20440;-73
2024/03/15 00:17:11;;;;;;;10.77;5.63;;;;;;;12.05;100.00;100689.84;5092818;28;20032;-74
2024/03/15 00:19:38;;;;;;;8.57;5.95;;;;;;;12.04;100.00;100687.34;5092596;28;20118;-72
2024/03/15 00:22:03;;;;;;;11.52;6.45;;;;;;;12.04;100.00;100693.50;5093009;28;20092;-73
2024/03/15 00:24:28;;;;;;;12.88;5.93;;;;;;;12.04;100.00;100680.16;5092479;28;20455;-72
2024/03/15 00:26:54;;;;;;;9.85;6.30;;;;;;;11.98;100.00;100681.63;5092744;28;20402;-72
2024/03/15 00:29:19;;;;;;;14.55;6.38;;;;;;;11.91;100.00;100677.00;5092734;28;20078;-73
2024/03/15 00:31:47;;;;;;;11.82;6.55;;;;;;;11.82;100.00;100684.94;5092388;28;20355;-72
2024/03/15 00:34:14;;;;;;;11.68;6.00;;;;;;;11.77;100.00;100683.72;5092423;28;20058;-73
2024/03/15 00:36:41;;;;;;;9.40;5.53;;;;;;;11.76;100.00;100690.03;5092366;28;20016;-72
2024/03/15 00:39:07;;;;;;;7.90;5.72;;;;;;;11.72;100.00;100691.31;5093166;28;20114;-72
2024/03/15 00:41:32;;;;;;;13.13;6.30;;;;;;;11.71;100.00;100681.66;5092737;28;20107;-73
2024/03/15 00:44:01;;;;;;;8.52;5.53;;;;;;;11.70;100.00;100682.63;5092501;28;20028;-73
2024/03/15 00:46:26;;;;;;;10.07;6.03;;;;;;;11.67;100.00;100683.75;5092983;28;20447;-73
2024/03/15 00:48:54;;;;;;;12.20;6.20;;;;;;;11.70;100.00;100682.63;5092649;28;20051;-72
2024/03/15 00:51:20;;;;;;;11.43;6.18;;;;;;;11.70;100.00;100675.47;5074906;28;20024;-73
2024/03/15 00:53:46;;;;;;;7.40;5.47;;;;;;;11.75;100.00;100677.72;5092693;28;20076;-73
2024/03/15 00:56:11;;;;;;;7.82;4.78;;;;;;;11.74;100.00;100679.50;5092147;28;20024;-73
2024/03/15 00:58:37;;;;;;;8.30;5.20;;;;;;;11.68;100.00;100681.94;5073702;28;20119;-73
2024/03/15 01:01:06;;;;;;;8.63;5.07;;;;;;;11.59;100.00;100673.03;5091993;28;20024;-73
2024/03/15 01:03:31;;;;;;;10.30;5.25;;;;;;;11.54;100.00;100668.16;5092376;28;20023;-73
2024/03/15 01:05:58;;;;;;;12.20;5.55;;;;;;;11.44;100.00;100665.53;5092024;28;20370;-73
2024/03/15 01:08:24;;;;;;;7.90;5.38;;;;;;;11.39;100.00;100664.28;5091834;28;20092;-73
2024/03/15 01:10:49;;;;;;;8.65;5.13;;;;;;;11.35;100.00;100665.59;5091984;28;20086;-73
2024/03/15 01:13:15;;;;;;;9.25;5.25;;;;;;;11.34;100.00;100664.75;5091429;28;20024;-77
2024/03/15 01:15:45;;;;;;;7.90;4.82;;;;;;;11.32;100.00;100680.03;5091930;28;20024;-73
2024/03/15 01:18:11;;;;;;;10.75;5.78;;;;;;;11.28;100.00;100668.00;5092474;28;20027;-72
2024/03/15 01:20:37;;;;;;;8.20;5.47;;;;;;;11.27;100.00;100668.97;5091905;28;20031;-73
2024/03/15 01:23:02;;;;;;;9.32;5.60;;;;;;;11.24;100.00;100667.47;5092080;28;20353;-73
2024/03/15 01:25:29;;;;;;;8.02;5.60;;;;;;;11.22;100.00;100658.78;5091861;28;20470;-72
2024/03/15 01:27:57;;;;;;;11.48;6.50;;;;;;;11.20;100.00;100659.94;5074126;28;20096;-73
2024/03/15 01:30:23;;;;;;;9.35;5.97;;;;;;;11.15;100.00;100660.38;5091899;28;20020;-73
2024/03/15 01:32:49;;;;;;;14.85;6.18;;;;;;;11.11;100.00;100657.16;5092283;28;20027;-74
2024/03/15 01:35:16;;;;;;;11.18;6.50;;;;;;;11.10;100.00;100665.28;5091915;28;20039;-74
2024/03/15 01:37:42;;;;;;;13.50;7.05;;;;;;;11.04;100.00;100672.03;5091950;28;20071;-73
2024/03/15 01:40:09;;;;;;;18.02;7.38;;;;;;;10.93;100.00;100670.38;5091750;28;20040;-73
2024/03/15 01:42:35;;;;;;;11.60;7.57;;;;;;;10.80;100.00;100669.88;5091780;28;20024;-73
2024/03/15 01:45:00;;;;;;;12.95;7.47;;;;;;;10.69;100.00;100676.22;5091843;28;20020;-73
2024/03/15 01:47:27;;;;;;;13.35;7.85;;;;;;;10.58;100.00;100673.69;5091663;28;20073;-73
2024/03/15 01:49:54;;;;;;;12.73;7.75;;;;;;;10.51;100.00;100664.59;5091771;28;20020;-73
2024/03/15 01:52:20;;;;;;;17.08;7.75;;;;;;;10.43;100.00;100673.31;5091918;28;20028;-77
2024/03/15 01:54:46;;;;;;;15.82;7.85;;;;;;;10.34;100.00;100675.00;5091753;28;20474;-73
2024/03/15 01:57:12;;;;;;;16.45;7.82;;;;;;;10.28;100.00;100672.03;5091836;28;20020;-72
2024/03/15 01:59:38;;;;;;;13.85;8.00;;;;;;;10.28;100.00;100677.34;5091456;28;20043;-73
2024/03/15 02:02:04;;;;;;;12.60;7.78;;;;;;;10.23;100.00;100665.31;5091484;28;20440;-72
2024/03/15 02:04:53;;;;;;;18.48;7.47;;;;;;;10.28;100.00;100669.38;5091506;28;20020;-73
2024/03/15 02:07:18;;;;;;;16.85;7.45;;;;;;;10.27;100.00;100665.03;5091292;28;20085;-73
2024/03/15 02:09:43;;;;;;;14.40;7.88;;;;;;;10.21;100.00;100672.59;5091495;28;20585;-73
2024/03/15 02:12:08;;;;;;;17.00;8.63;;;;;;;10.17;100.00;100676.53;5091394;28;20349;-73
2024/03/15 02:14:34;;;;;;;12.23;7.68;;;;;;;10.13;100.00;100669.78;5091538;28;20422;-73
2024/03/15 02:16:59;;;;;;;20.60;8.43;;;;;;;10.13;100.00;100674.28;5091691;28;20056;-73
2024/03/15 02:19:24;;;;;;;15.55;8.93;;;;;;;10.12;100.00;100677.91;5091427;28;20051;-73
2024/03/15 02:21:50;;;;;;;14.63;8.70;;;;;;;10.09;100.00;100679.06;5091748;28;20036;-73
2024/03/15 02:24:15;;;;;;;17.65;8.40;;;;;;;10.06;100.00;100677.50;5092884;28;20056;-72
2024/03/15 02:26:44;;;;;;;16.88;8.63;;;;;;;10.07;100.00;100678.34;5076827;28;20039;-73
2024/03/15 02:29:12;;;;;;;16.70;9.32;;;;;;;10.04;100.00;100682.09;5095226;28;20020;-73
2024/03/15 02:31:37;;;;;;;18.45;9.73;;;;;;;10.02;100.00;100683.25;5095104;28;20024;-73
2024/03/15 02:34:03;;;;;;;18.95;9.38;;;;;;;10.03;100.00;100682.25;5095223;28;20433;-73
2024/03/15 02:36:29;;;;;;;18.17;10.20;;;;;;;10.06;100.00;100684.63;5095201;28;20491;-73
2024/03/15 02:38:54;;;;;;;20.63;9.40;;;;;;;10.09;100.00;100683.50;5095073;28;20367;-73
2024/03/15 02:41:20;;;;;;;14.75;9.38;;;;;;;10.07;100.00;100686.31;5095222;28;20016;-73
2024/03/15 02:43:45;;;;;;;17.95;9.30;;;;;;;10.07;100.00;100678.34;5094864;28;20119;-73
2024/03/15 02:46:11;;;;;;;18.55;9.20;;;;;;;10.07;100.00;100687.13;5094969;28;20024;-73
2024/03/15 02:48:40;;;;;;;16.63;9.40;;;;;;;10.11;100.00;100681.56;5094735;28;20050;-73
2024/03/15 02:51:06;;;;;;;16.10;9.18;;;;;;;10.11;100.00;100685.06;5076490;28;20059;-73
2024/03/15 02:53:32;;;;;;;15.05;8.50;;;;;;;10.13;100.00;100691.06;5095109;28;20604;-71
2024/03/15 02:56:00;;;;;;;19.83;9.38;;;;;;;10.16;100.00;100692.63;5094571;28;20111;-73
2024/03/15 02:58:26;;;;;;;19.00;8.80;;;;;;;10.17;100.00;100687.16;5076717;28;20043;-72
2024/03/15 03:00:52;;;;;;;13.25;8.40;;;;;;;10.18;100.00;100694.16;5094377;28;20402;-72
2024/03/15 03:03:17;;;;;;;13.35;8.45;;;;;;;10.20;100.00;100694.84;5094427;28;20016;-72
2024/03/15 03:05:42;;;;;;;17.98;8.73;;;;;;;10.23;100.00;100693.75;5094341;28;20038;-73
2024/03/15 03:08:08;;;;;;;18.58;8.23;;;;;;;10.27;100.00;100687.16;5094361;28;20359;-73
2024/03/15 03:10:33;;;;;;;15.23;7.97;;;;;;;10.29;100.00;100695.00;5094575;28;20028;-73
2024/03/15 03:13:00;;;;;;;11.50;6.82;;;;;;;10.30;100.00;100686.03;5094303;28;20374;-73
2024/03/15 03:15:25;;;;;;;15.82;6.88;;;;;;;10.32;100.00;100695.56;5094559;28;20028;-73
2024/03/15 03:17:51;;;;;;;14.20;6.75;;;;;;;10.32;100.00;100684.09;5094155;28;20056;-73
2024/03/15 03:20:20;;;;;;;11.75;6.72;;;;;;;10.32;100.00;100687.56;5094553;28;20062;-73
2024/03/15 03:22:49;;;;;;;13.43;6.28;;;;;;;10.34;100.00;100687.47;5094337;28;20052;-72
2024/03/15 03:25:15;;;;;;;9.32;6.15;;;;;;;10.34;100.00;100690.13;5076134;28;20028;-73
2024/03/15 03:27:41;;;;;;;13.68;6.25;;;;;;;10.35;100.00;100694.47;5094030;28;20335;-72
2024/03/15 03:30:07;;;;;;;16.77;6.05;;;;;;;10.37;100.00;100688.00;5075617;28;20023;-72
2024/03/15 03:32:35;;;;;;;14.73;6.30;;;;;;;10.35;100.00;100686.50;5093645;28;20024;-73
2024/03/15 03:35:03;;;;;;;13.88;6.45;;;;;;;10.31;100.00;100685.06;5094012;28;20020;-73
2024/03/15 03:37:28;;;;;;;13.68;6.32;;;;;;;10.30;100.00;100686.88;5093471;28;20095;-72
2024/03/15 03:39:53;;;;;;;12.63;6.07;;;;;;;10.28;100.00;100691.47;5094056;28;20572;-73
2024/03/15 03:42:20;;;;;;;14.80;6.85;;;;;;;10.28;100.00;100685.34;5093654;28;20024;-73
2024/03/15 03:44:45;;;;;;;11.60;6.25;;;;;;;10.28;100.00;100691.47;5093947;28;20372;-73
2024/03/15 03:47:10;;;;;;;11.02;6.40;;;;;;;10.27;100.00;100687.16;5093485;28;20024;-72
2024/03/15 03:49:36;;;;;;;13.57;6.75;;;;;;;10.27;100.00;100687.16;5093291;28;20028;-75
2024/03/15 03:52:01;;;;;;;13.10;7.63;;;;;;;10.23;100.00;100683.09;5093914;28;20020;-72
2024/03/15 03:54:26;;;;;;;18.75;8.07;;;;;;;10.24;100.00;100690.09;5094430;28;20095;-72
2024/03/15 03:56:52;;;;;;;12.88;7.63;;;;;;;10.23;100.00;100691.06;5093259;28;20111;-72
2024/03/15 03:59:17;;;;;;;15.48;7.88;;;;;;;10.23;100.00;100686.59;5093201;28;20111;-72
2024/03/15 04:01:43;;;;;;;13.98;7.35;;;;;;;10.23;100.00;100691.06;5093549;28;20118;-73
2024/03/15 04:04:08;;;;;;;19.63;7.60;;;;;;;10.22;100.00;100692.06;5075136;28;20211;-73
2024/03/15 04:06:34;;;;;;;15.23;7.32;;;;;;;10.20;100.00;100689.53;5074974;28;20114;-72
2024/03/15 04:09:00;;;;;;;17.08;7.10;;;;;;;10.20;100.00;100696.69;5093431;28;20024;-72
2024/03/15 04:11:25;;;;;;;13.70;6.85;;;;;;;10.19;100.00;100690.50;5093147;28;20058;-71
2024/03/15 04:13:53;;;;;;;14.68;7.53;;;;;;;10.20;100.00;100689.53;5093114;28;20081;-72
2024/03/15 04:16:18;;;;;;;20.85;7.80;;;;;;;10.21;100.00;100695.69;5093410;28;20119;-72
2024/03/15 04:18:44;;;;;;;12.15;6.80;;;;;;;10.21;100.00;100696.53;5074870;28;20106;-73
2024/03/15 04:21:13;;;;;;;16.25;7.25;;;;;;;10.19;100.00;100698.47;5093161;28;20462;-72
2024/03/15 04:23:38;;;;;;;14.38;9.02;;;;;;;10.18;100.00;100696.81;5093282;28;20077;-72
2024/03/15 04:26:05;;;;;;;16.77;9.73;;;;;;;10.15;100.00;100696.25;5092993;28;20016;-72
2024/03/15 04:28:30;;;;;;;19.52;11.05;;;;;;;10.13;100.00;100703.53;5093153;28;20039;-72
2024/03/15 04:30:58;;;;;;;19.95;11.48;;;;;;;10.11;100.00;100698.34;5093171;28;20019;-72
2024/03/15 04:33:24;;;;;;;17.80;10.60;;;;;;;10.10;100.00;100704.63;5093305;28;20031;-72
2024/03/15 04:35:52;;;;;;;24.05;10.77;;;;;;;10.09;100.00;100700.31;5092759;28;20368;-73
2024/03/15 04:38:18;;;;;;;16.70;10.18;;;;;;;10.07;100.00;100694.28;5093164;28;20024;-72
2024/03/15 04:40:43;;;;;;;20.30;10.00;;;;;;;10.06;100.00;100703.22;5092690;28;20027;-73
2024/03/15 04:43:10;;;;;;;21.67;9.32;;;;;;;10.04;100.00;100692.75;5092731;28;20050;-72
2024/03/15 04:45:36;;;;;;;18.40;9.18;;;;;;;10.00;100.00;100690.50;5093048;28;20106;-72
2024/03/15 04:48:01;;;;;;;21.00;10.02;;;;;;;10.02;100.00;100685.91;5091814;28;20499;-72
2024/03/15 04:50:27;;;;;;;28.70;10.88;;;;;;;10.01;100.00;100700.16;5092531;28;20415;-72
2024/03/15 04:52:53;;;;;;;21.13;10.32;;;;;;;10.01;100.00;100693.00;5092414;28;20020;-72
2024/03/15 04:55:19;;;;;;;21.25;10.18;;;;;;;9.99;100.00;100679.03;5092243;28;20122;-72
2024/03/15 04:57:45;;;;;;;25.85;10.98;;;;;;;10.00;100.00;100688.69;5092533;28;20124;-75
2024/03/15 05:00:30;;;;;;;28.33;10.93;;;;;;;9.99;100.00;100692.31;5092196;28;20027;-72
2024/03/15 05:02:55;;;;;;;19.35;10.20;;;;;;;9.98;100.00;100693.28;5092301;28;20023;-72
2024/03/15 05:05:21;;;;;;;27.45;11.13;;;;;;;9.97;100.00;100691.63;5092161;28;20031;-72
2024/03/15 05:07:46;;;;;;;28.20;10.50;;;;;;;9.98;100.00;100697.78;5091869;28;20028;-75
2024/03/15 05:10:13;;;;;;;27.13;10.60;;;;;;;9.98;100.00;100697.78;5092540;28;20415;-72
2024/03/15 05:12:39;;;;;;;22.92;9.75;;;;;;;9.94;100.00;100699.88;5091892;28;20067;-72
2024/03/15 05:15:05;;;;;;;24.42;8.65;;;;;;;9.93;100.00;100697.34;5091970;28;20028;-72
2024/03/15 05:17:31;;;;;;;22.23;9.05;;;;;;;9.90;100.00;100709.13;5091659;28;20320;-72
2024/03/15 05:19:56;;;;;;;22.85;8.27;;;;;;;9.86;100.00;100692.59;5091748;28;20099;-72
2024/03/15 05:22:24;;;;;;;23.38;8.35;;;;;;;9.86;100.00;100679.28;5091893;28;20020;-71
2024/03/15 05:24:50;;;;;;;19.50;6.45;;;;;;;9.85;100.00;100696.25;5091805;28;20061;-72
2024/03/15 05:27:15;;;;;;;22.30;8.02;;;;;;;9.82;100.00;100693.84;5091915;28;20027;-71
2024/03/15 05:29:40;;;;;;;18.77;7.97;;;;;;;9.82;100.00;100701.84;5091872;28;20051;-73
2024/03/15 05:32:07;;;;;;;19.45;7.65;;;;;;;9.82;100.00;100691.19;5091643;28;20052;-73
2024/03/15 05:34:32;;;;;;;21.92;7.93;;;;;;;9.83;100.00;100690.19;5073541;28;20016;-71
2024/03/15 05:36:58;;;;;;;16.67;7.60;;;;;;;9.82;100.00;100688.53;5091702;28;20024;-73
2024/03/15 05:39:23;;;;;;;22.92;8.88;;;;;;;9.81;100.00;100688.69;5073370;28;20032;-73
2024/03/15 05:41:49;;;;;;;27.33;8.50;;;;;;;9.82;100.00;100695.66;5073704;28;20027;-73
2024/03/15 05:44:14;;;;;;;18.15;7.07;;;;;;;9.82;100.00;100685.88;5091556;28;20024;-73
2024/03/15 05:46:40;;;;;;;17.05;7.15;;;;;;;9.81;100.00;100689.50;5091835;28;20063;-73
2024/03/15 05:49:06;;;;;;;17.92;6.70;;;;;;;9.82;100.00;100690.34;5091455;28;20020;-73
2024/03/15 05:51:32;;;;;;;19.30;6.72;;;;;;;9.83;100.00;100698.19;5091783;28;20031;-72
2024/03/15 05:53:58;;;;;;;23.63;6.65;;;;;;;9.81;100.00;100694.81;5074170;28;20304;-73
2024/03/15 05:56:23;;;;;;;15.57;6.45;;;;;;;9.81;100.00;100696.66;5091556;28;20020;-73
2024/03/15 05:58:50;;;;;;;17.92;6.28;;;;;;;9.81;100.00;100708.13;5092009;28;20024;-73
2024/03/15 06:01:15;;;;;;;20.55;5.60;;;;;;;9.84;100.00;100709.66;5095685;28;20456;-73
2024/03/15 06:03:40;;;;;;;24.58;6.35;;;;;;;9.86;100.00;100700.56;5095512;28;20103;-73
2024/03/15 06:06:07;;;;;;;26.27;6.78;;;;;;;9.87;100.00;100698.75;5095595;28;20019;-73
2024/03/15 06:08:32;;;;;;;35.08;6.95;;;;;;;9.89;100.00;100710.06;5095594;28;20103;-73
2024/03/15 06:10:58;;;;;;;23.30;5.57;;;;;;;9.90;100.00;100690.50;5095150;28;20119;-73
2024/03/15 06:13:25;;;;;;;23.17;5.32;;;;;;;9.93;100.00;100700.00;5095309;28;20457;-73
2024/03/15 06:15:50;;;;;;;22.35;4.82;;;;;;;9.94;100.00;100699.03;5095379;28;20102;-73
2024/03/15 06:18:15;;;;;;;27.48;5.18;;;;;;;9.95;100.00;100693.56;5077167;28;20027;-72
2024/03/15 06:20:41;;;;;;;20.92;4.03;;;;;;;9.95;100.00;100706.88;5095453;28;20436;-73
2024/03/15 06:23:06;;;;;;;23.05;4.22;;;;;;;9.96;100.00;100694.44;5095094;28;20024;-72
2024/03/15 06:25:31;;;;;;;15.80;3.70;;;;;;;9.95;100.00;100692.75;5095052;28;20320;-72
2024/03/15 06:28:06;;;;;;;18.40;3.92;;;;;;;9.95;100.00;100690.91;5094918;28;20031;-75
2024/03/15 06:30:33;;;;;;;25.10;4.13;;;;;;;9.96;100.00;100691.78;5095256;28;20359;-73
2024/03/15 06:32:59;;;;;;;10.43;3.03;;;;;;;9.97;100.00;100694.31;5095228;28;20020;-74
2024/03/15 06:35:27;;;;;;;19.08;4.15;;;;;;;10.02;100.00;100691.22;5094859;28;20027;-73
2024/03/15 06:37:56;;;;;;;20.75;3.03;;;;;;;10.04;100.00;100698.06;5094988;28;20066;-73
2024/03/15 06:40:31;;;;;;;14.45;2.70;;;;;;;10.05;100.00;100699.75;5094791;28;20047;-72
2024/03/15 06:45:26;;;;;;;13.95;2.83;;;;;;;10.14;100.00;100698.06;5095087;28;20035;-73
2024/03/15 06:48:03;;;;;;;18.73;2.80;;;;;;;10.21;100.00;100704.50;5095040;28;20488;-72
2024/03/15 06:50:48;;;;;;;13.95;2.75;;;;;;;10.27;100.00;100702.25;5094783;28;20051;-72
2024/03/15 06:53:16;;;;;;;16.88;3.03;;;;;;;10.32;100.00;100695.56;5094960;28;20059;-72
2024/03/15 06:55:43;;;;;;;8.05;2.28;;;;;;;10.40;100.00;100698.38;5094450;28;20024;-72
2024/03/15 06:58:08;;;;;;;10.18;2.30;;;;;;;10.49;100.00;100709.97;5094495;28;20075;-73
2024/03/15 07:00:34;;;;;;;12.60;2.72;;;;;;;10.54;100.00;100709.56;5094206;28;20031;-72
2024/03/15 07:03:00;;;;;;;12.65;2.60;;;;;;;10.61;100.00;100713.31;5094329;28;20115;-72
2024/03/15 07:05:26;;;;;;;14.63;2.22;;;;;;;10.68;100.00;100693.16;5094288;28;20020;-72
2024/03/15 07:07:53;;;;;;;16.52;2.38;;;;;;;10.70;100.00;100698.31;5094155;28;20031;-72
2024/03/15 07:10:18;;;;;;;10.88;2.92;;;;;;;10.73;100.00;100706.88;5093327;28;20341;-72
2024/03/15 07:12:46;;;;;;;22.08;3.72;;;;;;;10.77;100.00;100712.75;5075830;28;20081;-72
2024/03/15 07:15:15;;;;;;;16.25;2.83;;;;;;;10.74;100.00;100705.88;5076259;28;20044;-73
2024/03/15 07:17:43;;;;;;;17.98;3.13;;;;;;;10.76;100.00;100708.41;5094062;28;20028;-72
2024/03/15 07:20:12;;;;;;;19.25;2.88;;;;;;;10.79;100.00;100712.59;5094217;28;20073;-73
2024/03/15 07:22:38;;;;;;;11.18;2.45;;;;;;;10.84;100.00;100707.66;5093892;28;20107;-72
2024/03/15 07:25:05;;;;;;;14.65;2.85;;;;;;;10.91;100.00;100712.31;5094221;28;20070;-72
2024/03/15 07:27:33;;;;;;;14.88;2.33;;;;;;;10.99;100.00;100710.72;5094009;28;20035;-72
2024/03/15 07:30:01;;;;;;;14.15;2.42;;;;;;;11.00;100.00;100715.06;5094294;28;20030;-73
2024/03/15 07:32:27;;;;;;;12.90;2.78;;;;;;;11.07;100.00;100708.19;5076047;28;20024;-72
2024/03/15 07:34:53;;;;;;;18.10;2.65;;;;;;;11.12;100.00;100708.56;5093774;28;20081;-74
2024/03/15 07:37:18;;;;;;;12.15;2.58;;;;;;;11.17;100.00;100716.97;5094124;28;20115;-73
2024/03/15 07:39:44;;;;;;;10.82;1.90;;;;;;;11.21;100.00;100718.38;5093687;28;20405;-73
2024/03/15 07:42:09;;;;;;;10.90;2.40;;;;;;;11.26;100.00;100713.44;5093628;28;20031;-74
2024/03/15 07:44:35;;;;;;;16.48;3.55;;;;;;;11.22;100.00;100712.03;5093670;28;20408;-73
2024/03/15 07:47:02;;;;;;;20.60;3.30;;;;;;;11.19;100.00;100724.81;5093608;28;20088;-74
2024/03/15 07:49:28;;;;;;;20.10;2.80;;;;;;;11.26;100.00;100718.75;5093264;28;20460;-73
2024/03/15 07:51:54;;;;;;;11.25;2.80;;;;;;;11.26;100.00;100708.09;5093275;28;20035;-73
2024/03/15 07:54:23;;;;;;;20.25;3.10;;;;;;;11.29;100.00;100709.63;5093383;28;20100;-72
2024/03/15 07:56:49;;;;;;;13.80;3.17;;;;;;;11.43;100.00;100706.47;5093454;28;20043;-72
2024/03/15 07:59:14;;;;;;;11.88;2.72;;;;;;;11.51;100.00;100715.56;5093339;28;20161;-71
2024/03/15 08:01:42;;;;;;;18.73;3.25;;;;;;;11.43;100.00;100694.97;5093072;28;20107;-73
2024/03/15 08:04:08;;;;;;;20.15;2.97;;;;;;;11.34;100.00;100709.19;5093395;28;20041;-73
2024/03/15 08:06:35;;;;;;;13.35;2.90;;;;;;;11.44;100.00;100707.31;5092993;28;20201;-74
2024/03/15 08:09:00;;;;;;;15.43;3.63;;;;;;;11.62;100.00;100710.84;5093049;28;20012;-73
2024/03/15 08:11:28;;;;;;;17.23;3.13;;;;;;;11.82;100.00;100710.75;5092929;28;20044;-73
2024/03/15 08:13:54;;;;;;;11.75;3.35;;;;;;;12.14;100.00;100702.28;5093072;28;20036;-72
2024/03/15 08:16:19;;;;;;;15.40;3.58;;;;;;;12.38;100.00;100708.81;5093197;28;20111;-73
2024/03/15 08:18:47;;;;;;;13.48;2.63;;;;;;;12.50;100.00;100712.09;5092288;28;20028;-73
2024/03/15 08:21:13;;;;;;;16.67;2.88;;;;;;;12.39;100.00;100715.84;5092348;28;20024;-76
2024/03/15 08:23:38;;;;;;;17.77;3.28;;;;;;;12.36;100.00;100710.81;5073949;28;20355;-73
2024/03/15 08:26:04;;;;;;;14.23;2.45;;;;;;;12.34;100.00;100715.44;5092487;28;20028;-73
2024/03/15 08:28:31;;;;;;;16.48;3.05;;;;;;;12.27;100.00;100719.72;5092522;28;20035;-73
2024/03/15 08:30:56;;;;;;;15.73;3.50;;;;;;;12.24;100.00;100714.69;5092476;28;20044;-73
2024/03/15 08:33:22;;;;;;;18.75;3.45;;;;;;;12.29;100.00;100723.09;5074068;28;20111;-74
2024/03/15 08:35:47;;;;;;;15.27;3.10;;;;;;;12.33;100.00;100730.63;5092282;28;20016;-73
2024/03/15 08:38:13;;;;;;;14.85;2.78;;;;;;;12.48;100.00;100733.59;5092279;28;20054;-74
2024/03/15 08:40:38;;;;;;;11.88;2.35;;;;;;;12.55;100.00;100733.78;5092259;28;20042;-74
2024/03/15 08:43:04;;;;;;;16.90;3.03;;;;;;;12.69;100.00;100725.25;5092295;28;20036;-74
2024/03/15 08:45:29;;;;;;;21.30;3.55;;;;;;;12.55;100.00;100724.97;5092170;28;20030;-73
2024/03/15 08:47:55;;;;;;;16.25;2.88;;;;;;;12.45;100.00;100723.22;5091986;28;20412;-73
2024/03/15 08:50:20;;;;;;;15.85;3.00;;;;;;;12.41;100.00;100729.84;5092137;28;20058;-73
2024/03/15 08:52:47;;;;;;;16.90;3.45;;;;;;;12.51;100.00;100727.13;5092141;28;20016;-72
2024/03/15 08:55:13;;;;;;;16.17;3.22;;;;;;;12.61;100.00;100717.16;5092155;28;20032;-73
2024/03/15 08:57:39;;;;;;;14.15;3.03;;;;;;;12.69;100.00;100732.41;5091936;28;20023;-73
2024/03/15 09:00:11;;;;;;;17.92;3.47;;;;;;;12.63;100.00;100731.19;5091773;28;20103;-71
2024/03/15 09:02:36;;;;;;;11.60;3.40;;;;;;;12.63;100.00;100725.88;5092126;28;20339;-73
2024/03/15 09:05:08;;;;;;;24.40;3.80;;;;;;;12.65;100.00;100723.88;5091590;28;20020;-73
2024/03/15 09:07:37;;;;;;;20.58;3.78;;;;;;;12.84;100.00;100730.03;5091689;28;20043;-73
2024/03/15 09:10:07;;;;;;;15.02;3.08;;;;;;;12.67;100.00;100732.56;5092024;28;20032;-73
2024/03/15 09:12:34;;;;;;;19.50;3.20;;;;;;;12.55;100.00;100717.78;5091527;28;20067;-73
2024/03/15 09:14:59;;;;;;;16.83;3.38;;;;;;;12.38;100.00;100727.50;5091997;28;20020;-72
2024/03/15 09:17:24;;;;;;;19.25;4.32;;;;;;;12.24;100.00;100728.03;5092020;28;20054;-73
2024/03/15 09:19:53;;;;;;;17.80;3.83;;;;;;;12.20;100.00;100722.16;5091773;28;20024;-72
2024/03/15 09:22:18;;;;;;;21.70;4.10;;;;;;;12.07;100.00;100732.38;5091666;28;20081;-72
2024/03/15 09:24:45;;;;;;;14.95;3.47;;;;;;;12.08;100.00;100726.06;5091590;28;20024;-72
2024/03/15 09:27:11;;;;;;;17.40;3.55;;;;;;;12.15;100.00;100729.78;5091849;28;20032;-72
2024/03/15 09:29:36;;;;;;;13.82;3.97;;;;;;;12.23;100.00;100721.03;5091511;28;20517;-72
2024/03/15 09:32:02;;;;;;;17.13;4.28;;;;;;;12.31;100.00;100729.91;5091532;28;20027;-72
2024/03/15 09:34:29;;;;;;;18.38;3.80;;;;;;;12.30;100.00;100741.59;5090784;28;20036;-73
2024/03/15 09:36:55;;;;;;;13.52;3.40;;;;;;;12.26;100.00;100739.41;5091376;28;20032;-72
2024/03/15 09:39:22;;;;;;;16.20;3.78;;;;;;;12.21;100.00;100741.66;5091164;28;20502;-72
2024/03/15 09:41:53;;;;;;;18.55;4.70;;;;;;;12.15;100.00;100743.09;5091274;28;20077;-71
2024/03/15 09:44:19;;;;;;;14.00;4.65;;;;;;;12.08;100.00;100747.38;5091519;28;20093;-72
2024/03/15 09:46:45;;;;;;;22.70;4.75;;;;;;;12.02;100.00;100738.16;5073529;28;20127;-72
2024/03/15 09:49:12;;;;;;;16.75;4.68;;;;;;;11.98;100.00;100742.09;5073184;28;20032;-72
2024/03/15 09:51:40;;;;;;;15.00;3.78;;;;;;;12.09;100.00;100741.03;5091330;28;20420;-71
2024/03/15 09:54:08;;;;;;;19.80;4.15;;;;;;;12.23;100.00;100743.19;5091952;28;20025;-71
2024/03/15 09:56:35;;;;;;;14.85;4.20;;;;;;;12.16;100.00;100734.13;5091189;28;20055;-71
2024/03/15 09:59:02;;;;;;;14.02;4.25;;;;;;;12.21;100.00;100744.34;5091621;28;20024;-71
2024/03/15 10:01:29;;;;;;;16.38;4.00;;;;;;;12.25;100.00;100743.03;5091448;28;20028;-73
2024/03/15 10:03:54;;;;;;;20.85;5.88;;;;;;;12.34;100.00;100747.47;5072915;28;20399;-72
2024/03/15 10:06:22;;;;;;;13.73;3.55;;;;;;;12.39;100.00;100744.31;5091357;28;20034;-72
2024/03/15 10:08:48;;;;;;;12.73;3.50;;;;;;;12.39;100.00;100755.00;5091799;28;20084;-73
2024/03/15 10:11:14;;;;;;;19.88;4.93;;;;;;;12.28;100.00;100769.41;5092024;28;20101;-73
2024/03/15 10:13:39;;;;;;;14.18;4.13;;;;;;;12.21;100.00;100752.34;5073772;28;20024;-73
2024/03/15 10:16:08;;;;;;;11.95;4.40;;;;;;;12.13;100.00;100758.44;5091792;28;20111;-73
2024/03/15 10:18:39;;;;;;;12.98;4.05;;;;;;;12.17;100.00;100754.47;5092131;28;20073;-72
2024/03/15 10:21:05;;;;;;;10.65;3.92;;;;;;;12.21;100.00;100750.53;5091893;28;20038;-72
2024/03/15 10:23:30;;;;;;;12.40;4.03;;;;;;;12.22;100.00;100760.19;5092133;28;20106;-74
2024/03/15 10:25:56;;;;;;;15.27;3.97;;;;;;;12.17;100.00;100760.63;5091657;28;20379;-72
2024/03/15 10:28:21;;;;;;;15.80;4.05;;;;;;;12.11;100.00;100757.75;5091807;28;20028;-72
2024/03/15 10:30:47;;;;;;;14.65;4.18;;;;;;;12.00;100.00;100758.78;5092111;28;20379;-73
2024/03/15 10:33:13;;;;;;;8.70;3.78;;;;;;;11.98;100.00;100769.59;5091674;28;20032;-72
2024/03/15 10:35:39;;;;;;;16.55;3.88;;;;;;;11.93;100.00;100763.91;5091570;28;20365;-73
2024/03/15 10:38:05;;;;;;;13.20;4.60;;;;;;;11.86;100.00;100756.63;5091916;28;20032;-73
2024/03/15 10:40:32;;;;;;;17.33;4.00;;;;;;;11.74;100.00;100763.97;5091684;28;20020;-72
2024/03/15 10:43:00;;;;;;;13.02;4.32;;;;;;;11.64;100.00;100775.53;5091562;28;20357;-71
2024/03/15 10:45:26;;;;;;;14.30;3.83;;;;;;;11.60;100.00;100760.00;5091915;28;20036;-72
2024/03/15 10:47:56;;;;;;;15.15;4.13;;;;;;;11.67;100.00;100762.88;5095119;28;20044;-72
2024/03/15 10:50:24;;;;;;;14.93;3.40;;;;;;;11.75;100.00;100757.66;5095186;28;20117;-73
2024/03/15 10:52:52;;;;;;;14.05;3.53;;;;;;;11.83;100.00;100755.06;5095057;28;20031;-73
2024/03/15 10:55:23;;;;;;;12.38;3.30;;;;;;;11.99;100.00;100760.63;5095147;28;20020;-73
2024/03/15 10:57:52;;;;;;;8.98;3.53;;;;;;;12.23;100.00;100761.88;5095301;28;20051;-73
2024/03/15 11:00:19;;;;;;;10.57;2.95;;;;;;;12.48;100.00;100752.25;5094969;28;20028;-73
2024/03/15 11:02:45;;;;;;;10.57;3.15;;;;;;;12.70;100.00;100760.75;5094956;28;20027;-72
2024/03/15 11:05:20;;;;;;;9.80;3.47;;;;;;;12.81;100.00;100757.03;5095068;28;20032;-73
2024/03/15 11:07:46;;;;;;;9.30;2.83;;;;;;;12.79;100.00;100746.47;5095172;28;20065;-73
2024/03/15 11:10:21;;;;;;;7.97;2.63;;;;;;;12.81;100.00;100741.84;5094849;28;20056;-73